»·PEaware :: N106AZ KRYN-KSAD

N106AZ :: KRYN-KSAD

FLIGHT INFORMATION

Flight Status: Arrived
Operator: Privately registered:
United States
More flights under this callsign
Pilot: Spencer F. (32151)
Aircraft: CESSNA 172 SKYHAWK
(C172)
More flights by this aircraft type
Origin: KRYN Ryan
United States
Destination: KSAD Safford Regl
United States
More flights between these airports :: More routes between these airports
Route:
File this flight plan on PilotEdge
Remarks:
Altitude:
(Current/Filed)
7,500ft
Speed:
(Current/Filed)
124kts
Departed: 09-Jan-21 02:10 PM
Arrived: 09-Jan-21 03:00 PM
Distance/Time
Traveled:
89nm/0:50
Distance/Time
To Go:
Arrived

Flight Plot

Page will automatically refresh every two minutes.

Flight plan parsing failed; only flown route is shown


Map Options




Map Legend


Flown Route
Filed Route
Departure Airport
Arrival Airport
Navaid (VOR, NDB)
Fix

Horizontal Profiles

Position Reports

Time Latitude Longitude Heading Altitude Ground
Speed
09-Jan-21 14:07 32.135192 -111.172948 44 2414ft 13kts
09-Jan-21 14:07 32.139254 -111.173667 274 2406ft 12kts
09-Jan-21 14:08 32.136414 -111.176611 168 2412ft 20kts
09-Jan-21 14:10 32.138816 -111.178796 342 2403ft 68kts
09-Jan-21 14:10 32.154580 -111.181347 340 3009ft 65kts
09-Jan-21 14:11 32.167755 -111.159739 54 3575ft 103kts
09-Jan-21 14:12 32.182860 -111.135662 12 4128ft 96kts
09-Jan-21 14:13 32.200927 -111.127879 352 4914ft 58kts
09-Jan-21 14:14 32.217203 -111.119435 11 5421ft 61kts
09-Jan-21 14:15 32.234252 -111.110753 11 5867ft 67kts
09-Jan-21 14:16 32.251795 -111.102259 11 6316ft 69kts
09-Jan-21 14:17 32.269442 -111.093822 11 6748ft 68kts
09-Jan-21 14:18 32.287151 -111.085028 11 7168ft 68kts
09-Jan-21 14:19 32.305318 -111.075983 11 7521ft 76kts
09-Jan-21 14:20 32.333059 -111.064509 12 7523ft 124kts
09-Jan-21 14:21 32.358085 -111.038273 92 7531ft 145kts
09-Jan-21 14:22 32.362038 -110.989856 95 7508ft 148kts
09-Jan-21 14:23 32.354841 -110.940564 103 7507ft 150kts
09-Jan-21 14:24 32.345115 -110.891948 103 7509ft 148kts
09-Jan-21 14:25 32.336898 -110.843691 99 7510ft 148kts
09-Jan-21 14:26 32.330027 -110.794892 99 7510ft 147kts
09-Jan-21 14:27 32.323296 -110.746152 100 7509ft 147kts
09-Jan-21 14:28 32.316691 -110.697758 100 7507ft 147kts
09-Jan-21 14:29 32.325811 -110.650875 67 7512ft 145kts
09-Jan-21 14:30 32.340292 -110.605242 67 7512ft 146kts
09-Jan-21 14:31 32.354668 -110.559442 68 7508ft 146kts
09-Jan-21 14:32 32.368951 -110.513542 68 7510ft 146kts
09-Jan-21 14:33 32.383220 -110.467351 68 7511ft 147kts
09-Jan-21 14:34 32.397440 -110.420886 68 7508ft 147kts
09-Jan-21 14:35 32.411600 -110.374211 69 7511ft 148kts
09-Jan-21 14:36 32.425518 -110.327817 70 7509ft 147kts
09-Jan-21 14:37 32.439347 -110.281389 70 7508ft 147kts
09-Jan-21 14:38 32.452888 -110.235511 71 7511ft 144kts
09-Jan-21 14:39 32.466271 -110.189583 70 7506ft 145kts
09-Jan-21 14:40 32.479184 -110.143435 72 7503ft 147kts
09-Jan-21 14:41 32.489185 -110.095449 77 7481ft 148kts
09-Jan-21 14:42 32.498229 -110.046868 77 7446ft 148kts
09-Jan-21 14:43 32.507185 -109.998866 77 7438ft 148kts
09-Jan-21 14:44 32.516420 -109.950254 78 7409ft 148kts
09-Jan-21 14:45 32.525711 -109.901571 78 7399ft 148kts
09-Jan-21 14:46 32.534736 -109.853640 78 7480ft 141kts
09-Jan-21 14:47 32.544043 -109.806197 63 7495ft 148kts
09-Jan-21 14:48 32.571876 -109.769970 45 7505ft 146kts
09-Jan-21 14:49 32.600263 -109.733942 43 7501ft 147kts
09-Jan-21 14:50 32.628853 -109.697654 44 7116ft 145kts
09-Jan-21 14:51 32.656835 -109.662046 44 6404ft 151kts
09-Jan-21 14:52 32.686925 -109.624289 44 5413ft 157kts
09-Jan-21 14:53 32.716006 -109.584187 43 4526ft 155kts
09-Jan-21 14:54 32.747647 -109.563376 351 4202ft 116kts
09-Jan-21 14:55 32.780614 -109.566550 330 4063ft 115kts
09-Jan-21 14:56 32.808052 -109.586897 310 3622ft 105kts
09-Jan-21 14:57 32.829578 -109.608252 304 3678ft 111kts
09-Jan-21 14:58 32.848957 -109.630682 307 3209ft 71kts
09-Jan-21 14:59 32.852251 -109.636727 26 3167ft 0kts

Navigation Log

Ident Type
Flight plan parsing failed, navigation log unavailable